createdAt,value
2023-01-10T00:01:34.113Z,1017.0
2023-01-10T00:16:24.554Z,1017.0
2023-01-10T00:31:24.492Z,1017.0
2023-01-10T00:46:24.969Z,1017.0
2023-01-10T01:01:25.084Z,1018.0
2023-01-10T01:16:24.858Z,1018.0
2023-01-10T01:31:24.576Z,1018.0
2023-01-10T01:46:24.430Z,1019.0
2023-01-10T02:01:24.732Z,1019.0
2023-01-10T02:16:24.627Z,1019.0
2023-01-10T02:31:24.846Z,1019.0
2023-01-10T02:46:24.985Z,1019.7
2023-01-10T03:01:24.920Z,1020.0
2023-01-10T03:16:24.974Z,1020.0
2023-01-10T03:31:24.592Z,1021.0
2023-01-10T03:46:24.892Z,1021.0
2023-01-10T04:01:25.093Z,1021.0
2023-01-10T04:16:25.147Z,1021.7
2023-01-10T04:31:33.825Z,1022.0
2023-01-10T04:46:34.556Z,1022.0
2023-01-10T05:01:34.262Z,1022.0
2023-01-10T05:16:24.378Z,1023.0
2023-01-10T05:31:24.691Z,1023.0
2023-01-10T05:46:24.518Z,1023.0
2023-01-10T06:01:24.409Z,1023.0
2023-01-10T06:16:24.345Z,1023.0
2023-01-10T06:31:24.477Z,1023.7
2023-01-10T06:46:24.881Z,1024.0
2023-01-10T07:01:24.727Z,1024.0
2023-01-10T07:16:24.444Z,1024.0
2023-01-10T07:30:25.237Z,1025.0
2023-01-10T07:45:23.853Z,1025.0
2023-01-10T08:00:30.349Z,1025.0
2023-01-10T08:15:24.282Z,1025.0
2023-01-10T08:30:25.710Z,1025.0
2023-01-10T08:45:24.545Z,1026.0
2023-01-10T09:00:24.663Z,1026.0
2023-01-10T09:15:25.021Z,1026.0
2023-01-10T09:30:33.615Z,1026.0
2023-01-10T09:45:33.925Z,1026.0
2023-01-10T10:00:33.903Z,1026.0
2023-01-10T10:15:23.915Z,1026.3
2023-01-10T10:30:24.359Z,1026.5
2023-01-10T10:45:25.445Z,1026.0
2023-01-10T11:00:35.170Z,1026.0
2023-01-10T11:15:23.915Z,1026.0
2023-01-10T11:30:24.247Z,1026.0
2023-01-10T11:45:24.005Z,1026.0
2023-01-10T12:00:37.560Z,1026.0
2023-01-10T12:15:24.211Z,1026.0
2023-01-10T12:30:26.357Z,1026.0
2023-01-10T12:45:24.248Z,1026.0
2023-01-10T13:00:26.162Z,1026.0
2023-01-10T13:15:25.969Z,1026.0
2023-01-10T13:30:27.284Z,1026.0
2023-01-10T13:45:24.387Z,1026.0
2023-01-10T14:00:24.640Z,1026.0
2023-01-10T14:15:25.950Z,1026.0
2023-01-10T14:30:33.728Z,1026.0
2023-01-10T14:45:33.711Z,1026.0
2023-01-10T15:00:33.972Z,1025.7
2023-01-10T15:15:23.722Z,1025.0
2023-01-10T15:30:24.042Z,1025.0
2023-01-10T15:46:40.119Z,1025.0
2023-01-10T16:01:27.047Z,1025.0
2023-01-10T16:16:24.855Z,1025.0
2023-01-10T16:31:24.876Z,1025.0
2023-01-10T16:46:25.024Z,1025.0
2023-01-10T17:01:24.966Z,1025.0
2023-01-10T17:16:25.428Z,1024.7
2023-01-10T17:31:25.396Z,1024.0
2023-01-10T17:46:25.171Z,1024.0
2023-01-10T18:01:25.731Z,1024.0
2023-01-10T18:16:27.193Z,1024.0
2023-01-10T18:31:25.133Z,1024.0
2023-01-10T18:46:25.510Z,1024.0
2023-01-10T19:01:25.262Z,1024.0
2023-01-10T19:16:25.799Z,1023.7
2023-01-10T19:31:25.602Z,1023.7
2023-01-10T19:46:25.760Z,1023.0
2023-01-10T20:01:34.625Z,1023.0
2023-01-10T20:16:24.839Z,1023.0
2023-01-10T20:31:24.750Z,1023.0
2023-01-10T20:46:25.044Z,1023.0
2023-01-10T21:01:34.036Z,1023.0
2023-01-10T21:16:24.931Z,1023.0
2023-01-10T21:31:24.827Z,1023.0
2023-01-10T21:46:24.887Z,1023.0
2023-01-10T22:01:24.857Z,1023.0
2023-01-10T22:16:24.950Z,1022.3
2023-01-10T22:31:25.058Z,1022.0
2023-01-10T22:46:24.953Z,1022.0
2023-01-10T23:04:09.418Z,1022.0
2023-01-10T23:16:25.322Z,1022.0
2023-01-10T23:31:25.270Z,1022.0
2023-01-10T23:46:26.096Z,1022.0
